Othello — LXOD — position and weather

sailwx.info

Track history (hours):
 
Tides and Currents Weather Stations Pressure Air Temp Water Temp Dewpoint Dewpoint Depression Visibility Wind Speed Wind Dir Waves Ship Positions

Othello

Last reported at 2017-Mar-27 02:13 UTC. Time now 2017-Mar-27 02:55 UTC.
Position N 51°17' E 004°20'.

Length 104 m; draft 7.5 m.

Type: Tanker. MMSI: 253279000.

Date/timePositionNaut miles runAvg speedWind from/ knotsBaromVisibWave heightAir tempDewpointWater temp
2017-Mar-27 02:13N 51°17' E 004°20'0 0.0
2017-Mar-27 01:25N 51°17' E 004°20'0 0.0
2017-Mar-27 00:31N 51°17' E 004°20'0 0.0
2017-Mar-26 23:25N 51°17' E 004°20'0 0.0
2017-Mar-26 22:25N 51°17' E 004°20'0 0.0
2017-Mar-26 21:16N 51°17' E 004°20'0 0.0
2017-Mar-26 20:22N 51°17' E 004°20'0 0.0
2017-Mar-26 19:31N 51°17' E 004°20'0 0.0
2017-Mar-26 18:16N 51°17' E 004°20'0 0.0
2017-Mar-26 16:04N 51°17' E 004°20'0 0.0
2017-Mar-26 15:22N 51°17' E 004°20'0 0.0
2017-Mar-26 14:31N 51°17' E 004°20'0 0.0
2017-Mar-26 13:25N 51°17' E 004°20'0 0.0
2017-Mar-26 12:28N 51°17' E 004°20'0 0.0
2017-Mar-26 11:28N 51°17' E 004°20'0 0.0
2017-Mar-26 10:31N 51°17' E 004°20'0 0.0
2017-Mar-26 09:31N 51°17' E 004°20'0 0.2
2017-Mar-26 08:34N 51°17' E 004°20'5 4.9
2017-Mar-26 07:34N 51°21' E 004°16'9 8.4
2017-Mar-26 06:28N 51°24' E 004°02'7 7.1
2017-Mar-26 05:33N 51°21' E 003°53'9 8.8
2017-Mar-26 04:33N 51°26' E 003°41'9 8.8
2017-Mar-26 03:34N 51°30' E 003°28'1010.0
2017-Mar-26 02:32N 51°39' E 003°20'7 3.3
2017-Mar-26 00:24N 51°46' E 003°20'0 0.1
2017-Mar-25 21:33N 51°46' E 003°20'0 0.0
2017-Mar-25 19:32N 51°46' E 003°20'0 0.0
2017-Mar-25 18:32N 51°46' E 003°20'0 0.0
2017-Mar-25 17:29N 51°46' E 003°20'0 0.0
2017-Mar-25 16:33N 51°46' E 003°20'0 0.0
2017-Mar-25 15:32N 51°46' E 003°20'0 0.0
2017-Mar-25 14:32N 51°46' E 003°20'0 0.2
2017-Mar-25 13:33N 51°46' E 003°20'0 0.0
2017-Mar-25 12:26N 51°46' E 003°20'0 0.1
2017-Mar-25 11:33N 51°46' E 003°20'0 0.2
2017-Mar-25 10:24N 51°46' E 003°20'0 0.0
2017-Mar-25 09:29N 51°46' E 003°20'0 0.0
2017-Mar-25 08:27N 51°46' E 003°20'8 8.8
2017-Mar-25 07:33N 51°46' E 003°07'1412.1
2017-Mar-25 06:27N 51°50' E 002°46'2311.7
2017-Mar-25 04:29N 52°09' E 002°24'1213.0
2017-Mar-25 03:33N 52°20' E 002°17'1312.6
2017-Mar-25 02:33N 52°32' E 002°10'1212.0
2017-Mar-25 01:33N 52°43' E 002°02'1111.4
2017-Mar-25 00:33N 52°50' E 001°47'1111.0
2017-Mar-24 23:33N 52°57' E 001°33'1111.0
2017-Mar-24 22:33N 53°05' E 001°21'1211.6
2017-Mar-24 21:33N 53°14' E 001°09'1211.7
2017-Mar-24 20:33N 53°22' E 000°55'1412.6
2017-Mar-24 19:27N 53°29' E 000°34'1412.4
2017-Mar-24 18:18N 53°33' E 000°11'1012.9
2017-Mar-24 17:33N 53°36' W 000°04'10 9.9
2017-Mar-24 16:33N 53°44' W 000°15'0 0.0
2017-Mar-24 15:33N 53°44' W 000°15'0 0.0
2017-Mar-24 14:33N 53°44' W 000°15'0 0.0
2017-Mar-24 13:33N 53°44' W 000°15'0 0.0
2017-Mar-24 12:33N 53°44' W 000°15'0 0.0
2017-Mar-24 11:33N 53°44' W 000°15'0 0.0
2017-Mar-24 10:33N 53°44' W 000°15'0 0.0
2017-Mar-24 09:33N 53°44' W 000°15'0 0.0
2017-Mar-24 08:33N 53°44' W 000°15'0 0.0
2017-Mar-24 07:33N 53°44' W 000°15'0 0.0
2017-Mar-24 06:33N 53°44' W 000°15'0 0.0
2017-Mar-24 05:33N 53°44' W 000°15'0 0.0
2017-Mar-24 04:33N 53°44' W 000°15'0 0.0
2017-Mar-24 03:33N 53°44' W 000°15'0 0.0
2017-Mar-24 02:33N 53°44' W 000°15'0 0.0
2017-Mar-24 01:33N 53°44' W 000°15'0 0.0
2017-Mar-24 00:33N 53°44' W 000°15'0 0.0
2017-Mar-23 23:33N 53°44' W 000°15'0 0.0
2017-Mar-23 22:33N 53°44' W 000°15'0 0.0
2017-Mar-23 21:33N 53°44' W 000°15'0 0.0
2017-Mar-23 20:33N 53°44' W 000°15'0 0.0
2017-Mar-23 19:33N 53°44' W 000°15'7 7.1
2017-Mar-23 18:33N 53°38' W 000°08'1110.7
2017-Mar-23 17:33N 53°33' E 000°08'1312.7
2017-Mar-23 16:30N 53°28' E 000°29'1812.7
2017-Mar-23 15:04N 53°22' E 000°57'1111.6
2017-Mar-23 14:10N 53°16' E 001°12'812.2
2017-Mar-23 13:33N 53°09' E 001°18'1312.9
2017-Mar-23 12:33N 52°58' E 001°29'1414.1
2017-Mar-23 11:33N 52°50' E 001°48'1414.0
2017-Mar-23 10:33N 52°40' E 002°04'5413.3
2017-Mar-23 06:29N 51°50' E 002°39'1713.1
2017-Mar-23 05:09N 51°44' E 003°06'812.2
2017-Mar-23 04:28N 51°41' E 003°18'1213.0
2017-Mar-23 03:33N 51°31' E 003°27'1010.1
2017-Mar-23 02:33N 51°26' E 003°41'1110.2
2017-Mar-23 01:27N 51°26' E 003°60'1011.3
2017-Mar-23 00:33N 51°22' E 004°14'2 2.2
2017-Mar-22 23:33N 51°21' E 004°17'1 1.1
2017-Mar-22 22:33N 51°20' E 004°18'3 3.3
2017-Mar-22 21:33N 51°17' E 004°20'0 0.0
2017-Mar-22 20:33N 51°17' E 004°20'0 0.0
2017-Mar-22 19:30N 51°17' E 004°20'0 0.0
2017-Mar-22 18:24N 51°17' E 004°20'0 0.0
2017-Mar-22 17:30N 51°17' E 004°20'0 0.0
2017-Mar-22 16:27N 51°17' E 004°20'0 0.0
2017-Mar-22 15:33N 51°17' E 004°20'0 0.0
2017-Mar-22 14:27N 51°17' E 004°20'0 0.0
2017-Mar-22 13:33N 51°17' E 004°20'0 0.0
2017-Mar-22 12:27N 51°17' E 004°20'0 0.0
2017-Mar-22 11:33N 51°17' E 004°20'0 0.0
2017-Mar-22 10:30N 51°17' E 004°20'0 0.0
2017-Mar-22 09:21N 51°17' E 004°20'0 0.0
2017-Mar-22 08:27N 51°17' E 004°20'0 0.0
2017-Mar-22 07:27N 51°17' E 004°20'0 0.0
2017-Mar-22 06:33N 51°17' E 004°20'0 0.0
2017-Mar-22 05:33N 51°17' E 004°20'0 0.0
2017-Mar-22 04:33N 51°17' E 004°20'0 0.0
2017-Mar-22 03:33N 51°17' E 004°20'0 0.0
2017-Mar-22 02:33N 51°17' E 004°20'0 0.0
2017-Mar-22 01:09N 51°17' E 004°20'0 0.0
2017-Mar-22 00:27N 51°17' E 004°20'0 0.0
2017-Mar-21 23:30N 51°17' E 004°20'0 0.0
2017-Mar-21 22:33N 51°17' E 004°20'0 0.0
2017-Mar-21 21:33N 51°17' E 004°20'0 0.0
2017-Mar-21 20:27N 51°17' E 004°20'0 0.0
2017-Mar-21 19:27N 51°17' E 004°20'0 0.0
2017-Mar-21 18:15N 51°17' E 004°20'0 0.5
2017-Mar-21 17:34N 51°17' E 004°20'4 4.1
2017-Mar-21 16:33N 51°20' E 004°16'1110.0
2017-Mar-21 15:29N 51°25' E 004°01'1011.0
2017-Mar-21 14:33N 51°21' E 003°46'10 9.7
2017-Mar-21 13:33N 51°25' E 003°32'1212.0
2017-Mar-21 12:33N 51°24' E 003°13'8 7.9
2017-Mar-21 11:33N 51°29' E 003°02'1212.2
2017-Mar-21 10:33N 51°40' E 003°12'7 7.3
2017-Mar-21 09:32N 51°45' E 003°19'0 0.1
2017-Mar-21 08:29N 51°45' E 003°20'0 0.0
2017-Mar-21 07:16N 51°45' E 003°20'0 0.0
2017-Mar-21 06:26N 51°45' E 003°20'0 0.0
2017-Mar-21 05:31N 51°45' E 003°20'0 0.0
2017-Mar-21 04:32N 51°45' E 003°20'0 0.0
2017-Mar-21 03:32N 51°45' E 003°20'0 0.1
2017-Mar-21 02:26N 51°45' E 003°19'0 0.0
2017-Mar-21 01:31N 51°45' E 003°19'0 0.1
2017-Mar-21 00:25N 51°45' E 003°20'0 0.1
2017-Mar-20 23:28N 51°45' E 003°20'0 0.0
2017-Mar-20 22:10N 51°45' E 003°20'0 0.0
2017-Mar-20 21:17N 51°45' E 003°19'0 0.0
2017-Mar-20 20:20N 51°45' E 003°19'0 0.0
2017-Mar-20 19:22N 51°45' E 003°19'0 0.0
2017-Mar-20 18:32N 51°45' E 003°20'0 0.0
2017-Mar-20 17:31N 51°45' E 003°19'0 0.0
2017-Mar-20 16:23N 51°45' E 003°19'0 0.0
2017-Mar-20 15:31N 51°45' E 003°19'0 0.0
2017-Mar-20 14:29N 51°45' E 003°19'0 0.0
2017-Mar-20 13:32N 51°45' E 003°19'0 0.0
2017-Mar-20 12:22N 51°45' E 003°19'0 0.0
2017-Mar-20 11:32N 51°45' E 003°19'0 0.0
2017-Mar-20 10:25N 51°45' E 003°19'0 0.0
2017-Mar-20 09:32N 51°45' E 003°19'0 0.0
2017-Mar-20 08:29N 51°45' E 003°19'0 0.0
2017-Mar-20 07:26N 51°45' E 003°19'0 0.0
2017-Mar-20 06:26N 51°45' E 003°19'0 0.0
2017-Mar-20 05:08N 51°45' E 003°19'0 0.0
2017-Mar-20 03:32N 51°45' E 003°19'0 0.0
2017-Mar-20 02:28N 51°45' E 003°19'0 0.0
2017-Mar-20 00:32N 51°45' E 003°19'0 0.0
2017-Mar-19 23:23N 51°45' E 003°19'0 0.0
2017-Mar-19 22:22N 51°45' E 003°19'0 0.1
2017-Mar-19 21:32N 51°45' E 003°19'10 9.1
2017-Mar-19 20:26N 51°47' E 003°03'12412.2
2017-Mar-19 10:16N 53°23' E 000°53'1014.6
2017-Mar-19 09:33N 53°28' E 000°37'1413.7
2017-Mar-19 08:33N 53°32' E 000°16'1111.2
2017-Mar-19 07:33N 53°36' W 000°02'10 8.9
2017-Mar-19 06:29N 53°42' W 000°14'2 0.5
2017-Mar-19 03:33N 53°44' W 000°15'0 0.0
2017-Mar-19 02:33N 53°44' W 000°15'0 0.0
2017-Mar-19 01:33N 53°44' W 000°15'0 0.0
2017-Mar-19 00:33N 53°44' W 000°15'0 0.0
2017-Mar-18 23:33N 53°44' W 000°15'0 0.0
2017-Mar-18 22:33N 53°44' W 000°15'0 0.0
2017-Mar-18 21:33N 53°44' W 000°15'0 0.0
2017-Mar-18 20:33N 53°44' W 000°15'0 0.0
2017-Mar-18 19:33N 53°44' W 000°15'0 0.0
2017-Mar-18 18:33N 53°44' W 000°15'0 0.0
2017-Mar-18 17:33N 53°44' W 000°15'0 0.0
2017-Mar-18 16:30N 53°44' W 000°15'0 0.0
2017-Mar-18 15:33N 53°44' W 000°15'0 0.0
2017-Mar-18 14:33N 53°44' W 000°15'0 0.0
2017-Mar-18 13:30N 53°44' W 000°15'0 0.0
2017-Mar-18 12:33N 53°44' W 000°15'0 0.0
2017-Mar-18 11:33N 53°44' W 000°15'0 0.0
2017-Mar-18 10:33N 53°44' W 000°15'0 0.0
2017-Mar-18 09:33N 53°44' W 000°15'0 0.0
2017-Mar-18 08:33N 53°44' W 000°15'5 5.3
2017-Mar-18 07:33N 53°39' W 000°11'1110.7
2017-Mar-18 06:33N 53°34' E 000°05'1212.0
2017-Mar-18 05:33N 53°30' E 000°23'1313.4
2017-Mar-18 04:34N 53°25' E 000°44'12812.6
2017-Mar-17 18:25N 51°46' E 002°58'1212.0
2017-Mar-17 17:25N 51°43' E 003°17'1214.0
2017-Mar-17 16:33N 51°32' E 003°26'1110.8
2017-Mar-17 15:33N 51°25' E 003°39'1010.2
2017-Mar-17 14:33N 51°22' E 003°54'7 6.5
2017-Mar-17 13:32N 51°22' E 004°05'8 8.2
2017-Mar-17 12:33N 51°21' E 004°17'0 0.0
2017-Mar-17 11:33N 51°21' E 004°17'3 2.6
2017-Mar-17 10:33N 51°19' E 004°19'2 1.7
2017-Mar-17 09:23N 51°17' E 004°20'0 0.0
2017-Mar-17 08:32N 51°17' E 004°20'0 0.0
2017-Mar-17 07:32N 51°17' E 004°20'0 0.0
2017-Mar-17 06:29N 51°17' E 004°20'0 0.0
2017-Mar-17 05:29N 51°17' E 004°20'0 0.0
2017-Mar-17 04:29N 51°17' E 004°20'0 0.0
2017-Mar-17 02:32N 51°17' E 004°20'  
Track history (hours):
 
Tides and Currents Weather Stations Pressure Air Temp Water Temp Dewpoint Dewpoint Depression Visibility Wind Speed Wind Dir Waves Ship Positions

Othello

Last reported at 2017-Mar-27 02:13 UTC. Time now 2017-Mar-27 02:55 UTC.
Position N 51°17' E 004°20'.

Length 104 m; draft 7.5 m.

Type: Tanker. MMSI: 253279000.

Date/timePositionNaut miles runAvg speedWind from/ knotsBaromVisibWave heightAir tempDewpointWater temp
2017-Mar-27 02:13N 51°17' E 004°20'0 0.0
2017-Mar-27 01:25N 51°17' E 004°20'0 0.0
2017-Mar-27 00:31N 51°17' E 004°20'0 0.0
2017-Mar-26 23:25N 51°17' E 004°20'0 0.0
2017-Mar-26 22:25N 51°17' E 004°20'0 0.0
2017-Mar-26 21:16N 51°17' E 004°20'0 0.0
2017-Mar-26 20:22N 51°17' E 004°20'0 0.0
2017-Mar-26 19:31N 51°17' E 004°20'0 0.0
2017-Mar-26 18:16N 51°17' E 004°20'0 0.0
2017-Mar-26 16:04N 51°17' E 004°20'0 0.0
2017-Mar-26 15:22N 51°17' E 004°20'0 0.0
2017-Mar-26 14:31N 51°17' E 004°20'0 0.0
2017-Mar-26 13:25N 51°17' E 004°20'0 0.0
2017-Mar-26 12:28N 51°17' E 004°20'0 0.0
2017-Mar-26 11:28N 51°17' E 004°20'0 0.0
2017-Mar-26 10:31N 51°17' E 004°20'0 0.0
2017-Mar-26 09:31N 51°17' E 004°20'0 0.2
2017-Mar-26 08:34N 51°17' E 004°20'5 4.9
2017-Mar-26 07:34N 51°21' E 004°16'9 8.4
2017-Mar-26 06:28N 51°24' E 004°02'7 7.1
2017-Mar-26 05:33N 51°21' E 003°53'9 8.8
2017-Mar-26 04:33N 51°26' E 003°41'9 8.8
2017-Mar-26 03:34N 51°30' E 003°28'1010.0
2017-Mar-26 02:32N 51°39' E 003°20'7 3.3
2017-Mar-26 00:24N 51°46' E 003°20'0 0.1
2017-Mar-25 21:33N 51°46' E 003°20'0 0.0
2017-Mar-25 19:32N 51°46' E 003°20'0 0.0
2017-Mar-25 18:32N 51°46' E 003°20'0 0.0
2017-Mar-25 17:29N 51°46' E 003°20'0 0.0
2017-Mar-25 16:33N 51°46' E 003°20'0 0.0
2017-Mar-25 15:32N 51°46' E 003°20'0 0.0
2017-Mar-25 14:32N 51°46' E 003°20'0 0.2
2017-Mar-25 13:33N 51°46' E 003°20'0 0.0
2017-Mar-25 12:26N 51°46' E 003°20'0 0.1
2017-Mar-25 11:33N 51°46' E 003°20'0 0.2
2017-Mar-25 10:24N 51°46' E 003°20'0 0.0
2017-Mar-25 09:29N 51°46' E 003°20'0 0.0
2017-Mar-25 08:27N 51°46' E 003°20'8 8.8
2017-Mar-25 07:33N 51°46' E 003°07'1412.1
2017-Mar-25 06:27N 51°50' E 002°46'2311.7
2017-Mar-25 04:29N 52°09' E 002°24'1213.0
2017-Mar-25 03:33N 52°20' E 002°17'1312.6
2017-Mar-25 02:33N 52°32' E 002°10'1212.0
2017-Mar-25 01:33N 52°43' E 002°02'1111.4
2017-Mar-25 00:33N 52°50' E 001°47'1111.0
2017-Mar-24 23:33N 52°57' E 001°33'1111.0
2017-Mar-24 22:33N 53°05' E 001°21'1211.6
2017-Mar-24 21:33N 53°14' E 001°09'1211.7
2017-Mar-24 20:33N 53°22' E 000°55'1412.6
2017-Mar-24 19:27N 53°29' E 000°34'1412.4
2017-Mar-24 18:18N 53°33' E 000°11'1012.9
2017-Mar-24 17:33N 53°36' W 000°04'10 9.9
2017-Mar-24 16:33N 53°44' W 000°15'0 0.0
2017-Mar-24 15:33N 53°44' W 000°15'0 0.0
2017-Mar-24 14:33N 53°44' W 000°15'0 0.0
2017-Mar-24 13:33N 53°44' W 000°15'0 0.0
2017-Mar-24 12:33N 53°44' W 000°15'0 0.0
2017-Mar-24 11:33N 53°44' W 000°15'0 0.0
2017-Mar-24 10:33N 53°44' W 000°15'0 0.0
2017-Mar-24 09:33N 53°44' W 000°15'0 0.0
2017-Mar-24 08:33N 53°44' W 000°15'0 0.0
2017-Mar-24 07:33N 53°44' W 000°15'0 0.0
2017-Mar-24 06:33N 53°44' W 000°15'0 0.0
2017-Mar-24 05:33N 53°44' W 000°15'0 0.0
2017-Mar-24 04:33N 53°44' W 000°15'0 0.0
2017-Mar-24 03:33N 53°44' W 000°15'0 0.0
2017-Mar-24 02:33N 53°44' W 000°15'0 0.0
2017-Mar-24 01:33N 53°44' W 000°15'0 0.0
2017-Mar-24 00:33N 53°44' W 000°15'0 0.0
2017-Mar-23 23:33N 53°44' W 000°15'0 0.0
2017-Mar-23 22:33N 53°44' W 000°15'0 0.0
2017-Mar-23 21:33N 53°44' W 000°15'0 0.0
2017-Mar-23 20:33N 53°44' W 000°15'0 0.0
2017-Mar-23 19:33N 53°44' W 000°15'7 7.1
2017-Mar-23 18:33N 53°38' W 000°08'1110.7
2017-Mar-23 17:33N 53°33' E 000°08'1312.7
2017-Mar-23 16:30N 53°28' E 000°29'1812.7
2017-Mar-23 15:04N 53°22' E 000°57'1111.6
2017-Mar-23 14:10N 53°16' E 001°12'812.2
2017-Mar-23 13:33N 53°09' E 001°18'1312.9
2017-Mar-23 12:33N 52°58' E 001°29'1414.1
2017-Mar-23 11:33N 52°50' E 001°48'1414.0
2017-Mar-23 10:33N 52°40' E 002°04'5413.3
2017-Mar-23 06:29N 51°50' E 002°39'1713.1
2017-Mar-23 05:09N 51°44' E 003°06'812.2
2017-Mar-23 04:28N 51°41' E 003°18'1213.0
2017-Mar-23 03:33N 51°31' E 003°27'1010.1
2017-Mar-23 02:33N 51°26' E 003°41'1110.2
2017-Mar-23 01:27N 51°26' E 003°60'1011.3
2017-Mar-23 00:33N 51°22' E 004°14'2 2.2
2017-Mar-22 23:33N 51°21' E 004°17'1 1.1
2017-Mar-22 22:33N 51°20' E 004°18'3 3.3
2017-Mar-22 21:33N 51°17' E 004°20'0 0.0
2017-Mar-22 20:33N 51°17' E 004°20'0 0.0
2017-Mar-22 19:30N 51°17' E 004°20'0 0.0
2017-Mar-22 18:24N 51°17' E 004°20'0 0.0
2017-Mar-22 17:30N 51°17' E 004°20'0 0.0
2017-Mar-22 16:27N 51°17' E 004°20'0 0.0
2017-Mar-22 15:33N 51°17' E 004°20'0 0.0
2017-Mar-22 14:27N 51°17' E 004°20'0 0.0
2017-Mar-22 13:33N 51°17' E 004°20'0 0.0
2017-Mar-22 12:27N 51°17' E 004°20'0 0.0
2017-Mar-22 11:33N 51°17' E 004°20'0 0.0
2017-Mar-22 10:30N 51°17' E 004°20'0 0.0
2017-Mar-22 09:21N 51°17' E 004°20'0 0.0
2017-Mar-22 08:27N 51°17' E 004°20'0 0.0
2017-Mar-22 07:27N 51°17' E 004°20'0 0.0
2017-Mar-22 06:33N 51°17' E 004°20'0 0.0
2017-Mar-22 05:33N 51°17' E 004°20'0 0.0
2017-Mar-22 04:33N 51°17' E 004°20'0 0.0
2017-Mar-22 03:33N 51°17' E 004°20'0 0.0
2017-Mar-22 02:33N 51°17' E 004°20'0 0.0
2017-Mar-22 01:09N 51°17' E 004°20'0 0.0
2017-Mar-22 00:27N 51°17' E 004°20'0 0.0
2017-Mar-21 23:30N 51°17' E 004°20'0 0.0
2017-Mar-21 22:33N 51°17' E 004°20'0 0.0
2017-Mar-21 21:33N 51°17' E 004°20'0 0.0
2017-Mar-21 20:27N 51°17' E 004°20'0 0.0
2017-Mar-21 19:27N 51°17' E 004°20'0 0.0
2017-Mar-21 18:15N 51°17' E 004°20'0 0.5
2017-Mar-21 17:34N 51°17' E 004°20'4 4.1
2017-Mar-21 16:33N 51°20' E 004°16'1110.0
2017-Mar-21 15:29N 51°25' E 004°01'1011.0
2017-Mar-21 14:33N 51°21' E 003°46'10 9.7
2017-Mar-21 13:33N 51°25' E 003°32'1212.0
2017-Mar-21 12:33N 51°24' E 003°13'8 7.9
2017-Mar-21 11:33N 51°29' E 003°02'1212.2
2017-Mar-21 10:33N 51°40' E 003°12'7 7.3
2017-Mar-21 09:32N 51°45' E 003°19'0 0.1
2017-Mar-21 08:29N 51°45' E 003°20'0 0.0
2017-Mar-21 07:16N 51°45' E 003°20'0 0.0
2017-Mar-21 06:26N 51°45' E 003°20'0 0.0
2017-Mar-21 05:31N 51°45' E 003°20'0 0.0
2017-Mar-21 04:32N 51°45' E 003°20'0 0.0
2017-Mar-21 03:32N 51°45' E 003°20'0 0.1
2017-Mar-21 02:26N 51°45' E 003°19'0 0.0
2017-Mar-21 01:31N 51°45' E 003°19'0 0.1
2017-Mar-21 00:25N 51°45' E 003°20'0 0.1
2017-Mar-20 23:28N 51°45' E 003°20'0 0.0
2017-Mar-20 22:10N 51°45' E 003°20'0 0.0
2017-Mar-20 21:17N 51°45' E 003°19'0 0.0
2017-Mar-20 20:20N 51°45' E 003°19'0 0.0
2017-Mar-20 19:22N 51°45' E 003°19'0 0.0
2017-Mar-20 18:32N 51°45' E 003°20'0 0.0
2017-Mar-20 17:31N 51°45' E 003°19'0 0.0
2017-Mar-20 16:23N 51°45' E 003°19'0 0.0
2017-Mar-20 15:31N 51°45' E 003°19'0 0.0
2017-Mar-20 14:29N 51°45' E 003°19'0 0.0
2017-Mar-20 13:32N 51°45' E 003°19'0 0.0
2017-Mar-20 12:22N 51°45' E 003°19'0 0.0
2017-Mar-20 11:32N 51°45' E 003°19'0 0.0
2017-Mar-20 10:25N 51°45' E 003°19'0 0.0
2017-Mar-20 09:32N 51°45' E 003°19'0 0.0
2017-Mar-20 08:29N 51°45' E 003°19'0 0.0
2017-Mar-20 07:26N 51°45' E 003°19'0 0.0
2017-Mar-20 06:26N 51°45' E 003°19'0 0.0
2017-Mar-20 05:08N 51°45' E 003°19'0 0.0
2017-Mar-20 03:32N 51°45' E 003°19'0 0.0
2017-Mar-20 02:28N 51°45' E 003°19'0 0.0
2017-Mar-20 00:32N 51°45' E 003°19'0 0.0
2017-Mar-19 23:23N 51°45' E 003°19'0 0.0
2017-Mar-19 22:22N 51°45' E 003°19'0 0.1
2017-Mar-19 21:32N 51°45' E 003°19'10 9.1
2017-Mar-19 20:26N 51°47' E 003°03'12412.2
2017-Mar-19 10:16N 53°23' E 000°53'1014.6
2017-Mar-19 09:33N 53°28' E 000°37'1413.7
2017-Mar-19 08:33N 53°32' E 000°16'1111.2
2017-Mar-19 07:33N 53°36' W 000°02'10 8.9
2017-Mar-19 06:29N 53°42' W 000°14'2 0.5
2017-Mar-19 03:33N 53°44' W 000°15'0 0.0
2017-Mar-19 02:33N 53°44' W 000°15'0 0.0
2017-Mar-19 01:33N 53°44' W 000°15'0 0.0
2017-Mar-19 00:33N 53°44' W 000°15'0 0.0
2017-Mar-18 23:33N 53°44' W 000°15'0 0.0
2017-Mar-18 22:33N 53°44' W 000°15'0 0.0
2017-Mar-18 21:33N 53°44' W 000°15'0 0.0
2017-Mar-18 20:33N 53°44' W 000°15'0 0.0
2017-Mar-18 19:33N 53°44' W 000°15'0 0.0
2017-Mar-18 18:33N 53°44' W 000°15'0 0.0
2017-Mar-18 17:33N 53°44' W 000°15'0 0.0
2017-Mar-18 16:30N 53°44' W 000°15'0 0.0
2017-Mar-18 15:33N 53°44' W 000°15'0 0.0
2017-Mar-18 14:33N 53°44' W 000°15'0 0.0
2017-Mar-18 13:30N 53°44' W 000°15'0 0.0
2017-Mar-18 12:33N 53°44' W 000°15'0 0.0
2017-Mar-18 11:33N 53°44' W 000°15'0 0.0
2017-Mar-18 10:33N 53°44' W 000°15'0 0.0
2017-Mar-18 09:33N 53°44' W 000°15'0 0.0
2017-Mar-18 08:33N 53°44' W 000°15'5 5.3
2017-Mar-18 07:33N 53°39' W 000°11'1110.7
2017-Mar-18 06:33N 53°34' E 000°05'1212.0
2017-Mar-18 05:33N 53°30' E 000°23'1313.4
2017-Mar-18 04:34N 53°25' E 000°44'12812.6
2017-Mar-17 18:25N 51°46' E 002°58'1212.0
2017-Mar-17 17:25N 51°43' E 003°17'1214.0
2017-Mar-17 16:33N 51°32' E 003°26'1110.8
2017-Mar-17 15:33N 51°25' E 003°39'1010.2
2017-Mar-17 14:33N 51°22' E 003°54'7 6.5
2017-Mar-17 13:32N 51°22' E 004°05'8 8.2
2017-Mar-17 12:33N 51°21' E 004°17'0 0.0
2017-Mar-17 11:33N 51°21' E 004°17'3 2.6
2017-Mar-17 10:33N 51°19' E 004°19'2 1.7
2017-Mar-17 09:23N 51°17' E 004°20'0 0.0
2017-Mar-17 08:32N 51°17' E 004°20'0 0.0
2017-Mar-17 07:32N 51°17' E 004°20'0 0.0
2017-Mar-17 06:29N 51°17' E 004°20'0 0.0
2017-Mar-17 05:29N 51°17' E 004°20'0 0.0
2017-Mar-17 04:29N 51°17' E 004°20'0 0.0
2017-Mar-17 02:32N 51°17' E 004°20'  

Dump ship's entire track history